Airfield :
LOGIN :

Register | Disclaimer

   EN    FR    IT 

 










Legend :    VFR   Marginal VFR   IFR   Intensive IFR   Very Intensive IFR
Visi :
Ceiling :
>= 8 km
>= 3000ft
5 to 8 km
1000 to 3000 ft
1500m to 5 km
500 to 1000 ft
800 to 1500m
200 to 500 ft
< 800m
< 200 ft
Symbols :   Thunderstorms  Fog  Heavy snow  Heavy precipitations  Wind > 20 kt
SIGMETs :     Misc.  Thunderstorms  Icing  Turbulence  Mountain Waves  Volcanic Ashes






- Airport Elevation : 81 ft
- IATA code : SCS


EGPM - Scatsta

CURRENT METAR :
  • 290620Z AUTO 26011KT 9999 BKN033/// 04/M02 Q1043

EXPIRED METARs :
  • 290550Z AUTO 27011KT 9999 OVC038/// 03/M03 Q1043
  • 290520Z AUTO 27009KT 9999 FEW040/// OVC048/// 03/M03 Q1044
  • 290450Z AUTO 27007KT 9999 NCD 02/M04 Q1045
  • 290420Z AUTO 24006KT 9999 NCD M01/M04 Q1045
  • 290350Z AUTO 25005KT 9999 NCD M01/M05 Q1045

TAF TAF EGPM
Valid from the 29 at 06:00 until the 29 at 15:00 UTC


290458Z 2906/2915 27009KT 9999 BKN045
TEMPO 2906/2915 29018G28KT
PROB30
TEMPO 2912/2915 5000 SHRA BKN012



MET'MAP, your aeronautical weather chart ! - Copyright ORBIFLY December 2007 - Disclaimer

ORBIFLY MET'MAP TEAM :

Programming & Development : Alexandra Zaïnal
Concept & original design : Baudouin d'Aumeries
Assistance for programming : Marc-Olivier Méhu
Technical & hardware support : Manuel Goepfert

Contact : metmap@orbifly.com




SOURCES & CREDITS :

   NOAA